createdAt,value
2019-05-05T00:00:37.058Z,99.90
2019-05-05T00:03:07.506Z,99.90
2019-05-05T00:05:39.843Z,99.90
2019-05-05T00:08:08.618Z,99.90
2019-05-05T00:10:41.546Z,99.90
2019-05-05T00:13:20.974Z,99.90
2019-05-05T00:16:07.482Z,99.90
2019-05-05T00:18:36.139Z,99.90
2019-05-05T00:21:04.884Z,99.90
2019-05-05T00:23:34.578Z,99.90
2019-05-05T00:26:04.386Z,99.90
2019-05-05T00:28:35.267Z,99.90
2019-05-05T00:31:04.662Z,99.90
2019-05-05T00:33:34.344Z,99.90
2019-05-05T00:36:05.537Z,99.90
2019-05-05T00:38:35.236Z,99.90
2019-05-05T00:41:05.466Z,99.90
2019-05-05T00:43:34.600Z,99.90
2019-05-05T00:46:08.232Z,99.90
2019-05-05T00:48:41.234Z,99.90
2019-05-05T00:51:09.987Z,99.90
2019-05-05T00:53:38.570Z,99.90
2019-05-05T00:56:07.130Z,99.90
2019-05-05T00:58:37.460Z,99.90
2019-05-05T01:01:14.412Z,99.90
2019-05-05T01:03:44.203Z,99.90
2019-05-05T01:06:15.158Z,99.90
2019-05-05T01:09:06.292Z,99.90
2019-05-05T01:11:35.552Z,99.90
2019-05-05T01:14:05.104Z,99.90
2019-05-05T01:16:35.157Z,99.90
2019-05-05T01:19:04.538Z,99.90
2019-05-05T01:21:34.901Z,99.90
2019-05-05T01:24:05.135Z,99.90
2019-05-05T01:26:35.359Z,99.90
2019-05-05T01:29:05.980Z,99.90
2019-05-05T01:31:34.815Z,99.90
2019-05-05T01:34:05.362Z,99.90
2019-05-05T01:36:34.545Z,99.90
2019-05-05T01:39:05.797Z,99.90
2019-05-05T01:41:36.291Z,99.90
2019-05-05T01:44:05.115Z,99.90
2019-05-05T01:46:35.359Z,99.90
2019-05-05T01:49:05.362Z,99.90
2019-05-05T01:51:35.422Z,99.90
2019-05-05T01:54:05.143Z,99.90
2019-05-05T01:56:35.256Z,99.90
2019-05-05T01:59:05.154Z,99.90
2019-05-05T02:01:35.229Z,99.90
2019-05-05T02:04:05.484Z,99.90
2019-05-05T02:06:35.003Z,99.90
2019-05-05T02:09:06.379Z,99.90
2019-05-05T02:11:35.506Z,99.90
2019-05-05T02:14:05.133Z,99.90
2019-05-05T02:16:34.722Z,99.90
2019-05-05T02:19:05.094Z,99.90
2019-05-05T02:21:35.306Z,99.90
2019-05-05T02:24:05.200Z,99.90
2019-05-05T02:26:35.140Z,99.90
2019-05-05T02:29:20.835Z,99.90
2019-05-05T02:32:07.731Z,99.90
2019-05-05T02:34:38.066Z,99.90
2019-05-05T02:37:06.718Z,99.90
2019-05-05T02:39:39.325Z,99.90
2019-05-05T02:42:06.049Z,99.90
2019-05-05T02:44:35.423Z,99.90
2019-05-05T02:47:11.652Z,99.90
2019-05-05T02:49:41.543Z,99.90
2019-05-05T02:52:11.083Z,99.90
2019-05-05T02:54:40.465Z,99.90
2019-05-05T02:57:10.854Z,99.90
2019-05-05T02:59:50.630Z,99.90
2019-05-05T03:02:24.314Z,99.90
2019-05-05T03:04:53.684Z,99.90
2019-05-05T03:07:25.147Z,99.90
2019-05-05T03:09:54.509Z,99.90
2019-05-05T03:12:24.807Z,99.90
2019-05-05T03:14:55.966Z,99.90
2019-05-05T03:17:24.757Z,99.90
2019-05-05T03:19:53.684Z,99.90
2019-05-05T03:22:23.737Z,99.90
2019-05-05T03:24:54.074Z,99.90
2019-05-05T03:27:23.805Z,99.90
2019-05-05T03:29:53.554Z,99.90
2019-05-05T03:32:25.372Z,99.90
2019-05-05T03:34:53.716Z,99.90
2019-05-05T03:37:24.833Z,99.90
2019-05-05T03:39:57.299Z,99.90
2019-05-05T03:42:27.686Z,99.90
2019-05-05T03:44:58.134Z,99.90
2019-05-05T03:47:27.891Z,99.90
2019-05-05T03:49:56.742Z,99.90
2019-05-05T03:52:26.052Z,99.90
2019-05-05T03:54:55.243Z,99.90
2019-05-05T03:57:24.683Z,99.90
2019-05-05T03:59:54.724Z,99.90
2019-05-05T04:02:44.501Z,99.90
2019-05-05T04:05:20.918Z,99.90
2019-05-05T04:07:50.618Z,99.90
2019-05-05T04:10:19.270Z,99.90
2019-05-05T04:12:48.151Z,99.90
2019-05-05T04:15:16.876Z,99.90
2019-05-05T04:17:47.362Z,99.90
2019-05-05T04:20:20.586Z,99.90
2019-05-05T04:22:49.154Z,99.90
2019-05-05T04:25:17.990Z,99.90
2019-05-05T04:27:48.445Z,99.90
2019-05-05T04:30:17.046Z,99.90
2019-05-05T04:32:46.127Z,99.90
2019-05-05T04:35:14.826Z,99.90
2019-05-05T04:37:43.848Z,99.90
2019-05-05T04:40:14.718Z,99.90
2019-05-05T04:42:44.044Z,99.90
2019-05-05T04:45:14.731Z,99.90
2019-05-05T04:47:54.226Z,99.90
2019-05-05T04:50:44.059Z,99.90
2019-05-05T04:53:14.526Z,99.90
2019-05-05T04:55:44.271Z,99.90
2019-05-05T04:58:13.717Z,99.90
2019-05-05T05:00:44.159Z,99.90
2019-05-05T05:03:14.386Z,99.90
2019-05-05T05:05:56.587Z,99.90
2019-05-05T05:08:25.574Z,99.90
2019-05-05T05:10:54.366Z,99.90
2019-05-05T05:13:24.457Z,99.90
2019-05-05T05:15:54.074Z,99.90
2019-05-05T05:18:24.095Z,99.90
2019-05-05T05:20:54.759Z,99.90
2019-05-05T05:23:24.649Z,99.90
2019-05-05T05:25:54.441Z,99.90
2019-05-05T05:28:23.653Z,99.90
2019-05-05T05:30:54.358Z,99.90
2019-05-05T05:33:23.912Z,99.90
2019-05-05T05:35:54.408Z,99.90
2019-05-05T05:38:24.246Z,99.90
2019-05-05T05:40:57.300Z,99.90
2019-05-05T05:43:30.256Z,99.90
2019-05-05T05:46:09.227Z,99.90
2019-05-05T05:48:48.622Z,99.90
2019-05-05T05:51:19.492Z,99.90
2019-05-05T05:53:48.204Z,99.90
2019-05-05T05:56:16.758Z,99.90
2019-05-05T05:58:45.351Z,99.90
2019-05-05T06:01:14.686Z,99.90
2019-05-05T06:03:44.323Z,99.90
2019-05-05T06:06:13.848Z,99.90
2019-05-05T06:08:43.950Z,99.90
2019-05-05T06:11:13.703Z,99.90
2019-05-05T06:13:44.413Z,99.90
2019-05-05T06:16:14.572Z,99.90
2019-05-05T06:18:43.745Z,99.90
2019-05-05T06:21:13.761Z,99.90
2019-05-05T06:23:43.718Z,99.90
2019-05-05T06:26:14.947Z,99.90
2019-05-05T06:28:44.760Z,99.90
2019-05-05T06:31:14.232Z,99.90
2019-05-05T06:33:43.828Z,99.90
2019-05-05T06:36:14.154Z,99.90
2019-05-05T06:38:43.672Z,99.90
2019-05-05T06:41:26.599Z,99.90
2019-05-05T06:43:56.862Z,99.90
2019-05-05T06:46:34.289Z,99.90
2019-05-05T06:49:04.339Z,99.90
2019-05-05T06:51:33.572Z,99.90
2019-05-05T06:54:04.478Z,99.90
2019-05-05T06:56:34.182Z,99.90
2019-05-05T06:59:04.445Z,99.30
2019-05-05T07:01:33.777Z,96.10
2019-05-05T07:04:03.455Z,83.30
2019-05-05T07:06:34.236Z,65.50
2019-05-05T07:09:02.714Z,53.80
2019-05-05T07:11:31.270Z,48.40
2019-05-05T07:13:59.899Z,45.50
2019-05-05T07:16:28.490Z,40.40
2019-05-05T07:18:57.078Z,39.20
2019-05-05T07:21:25.783Z,36.30
2019-05-05T07:23:54.503Z,35.00
2019-05-05T07:26:23.749Z,33.70
2019-05-05T07:28:54.131Z,34.20
2019-05-05T07:31:23.854Z,33.70
2019-05-05T07:33:54.506Z,34.60
2019-05-05T07:36:37.446Z,35.90
2019-05-05T07:39:07.421Z,38.90
2019-05-05T07:41:36.417Z,40.20
2019-05-05T07:44:05.214Z,43.00
2019-05-05T07:46:34.635Z,44.60
2019-05-05T07:49:03.958Z,41.20
2019-05-05T07:51:33.602Z,40.40
2019-05-05T07:54:03.802Z,43.30
2019-05-05T07:56:34.371Z,43.40
2019-05-05T07:59:03.779Z,45.70
2019-05-05T08:01:33.743Z,51.70
2019-05-05T08:04:04.293Z,55.50
2019-05-05T08:06:33.899Z,58.90
2019-05-05T08:09:04.173Z,60.90
2019-05-05T08:11:34.300Z,64.00
2019-05-05T08:14:04.022Z,67.30
2019-05-05T08:16:53.614Z,68.20
2019-05-05T08:19:34.685Z,71.10
2019-05-05T08:22:03.843Z,75.50
2019-05-05T08:24:50.802Z,81.40
2019-05-05T08:27:21.148Z,82.60
2019-05-05T08:29:51.471Z,86.80
2019-05-05T08:32:24.610Z,90.40
2019-05-05T08:34:59.886Z,91.60
2019-05-05T08:37:23.695Z,91.90
2019-05-05T08:39:54.015Z,93.90
2019-05-05T08:42:24.657Z,94.00
2019-05-05T08:44:53.868Z,92.10
2019-05-05T08:47:24.592Z,91.00
2019-05-05T08:49:53.804Z,85.10
2019-05-05T08:52:23.828Z,62.70
2019-05-05T08:54:54.157Z,57.20
2019-05-05T08:57:23.637Z,55.70
2019-05-05T08:59:54.525Z,57.10
2019-05-05T09:02:23.873Z,58.90
2019-05-05T09:04:53.763Z,62.60
2019-05-05T09:07:24.340Z,66.10
2019-05-05T09:09:54.690Z,70.20
2019-05-05T09:12:23.625Z,75.40
2019-05-05T09:14:53.854Z,82.10
2019-05-05T09:17:24.371Z,87.60
2019-05-05T09:19:53.743Z,85.20
2019-05-05T09:22:24.429Z,73.50
2019-05-05T09:25:04.307Z,68.50
2019-05-05T09:27:40.671Z,59.20
2019-05-05T09:30:14.120Z,53.60
2019-05-05T09:32:43.844Z,55.10
2019-05-05T09:35:13.879Z,55.20
2019-05-05T09:37:44.294Z,57.10
2019-05-05T09:40:13.847Z,58.60
2019-05-05T09:42:44.293Z,60.80
2019-05-05T09:45:14.032Z,58.40
2019-05-05T09:47:44.874Z,55.70
2019-05-05T09:50:14.342Z,52.20
2019-05-05T09:52:44.336Z,49.80
2019-05-05T09:55:13.848Z,51.50
2019-05-05T09:57:43.773Z,52.20
2019-05-05T10:00:14.195Z,54.40
2019-05-05T10:02:44.116Z,50.40
2019-05-05T10:05:14.466Z,47.80
2019-05-05T10:07:44.057Z,46.40
2019-05-05T10:10:13.801Z,44.70
2019-05-05T10:12:44.396Z,44.90
2019-05-05T10:15:13.951Z,47.00
2019-05-05T10:17:43.379Z,49.30
2019-05-05T10:20:14.531Z,50.40
2019-05-05T10:22:43.824Z,49.80
2019-05-05T10:25:34.351Z,46.40
2019-05-05T10:28:04.213Z,46.40
2019-05-05T10:30:34.144Z,46.80
2019-05-05T10:33:03.791Z,48.50
2019-05-05T10:35:34.491Z,47.50
2019-05-05T10:38:02.791Z,51.20
2019-05-05T10:40:33.862Z,52.80
2019-05-05T10:43:04.428Z,54.20
2019-05-05T10:45:33.424Z,56.90
2019-05-05T10:48:03.994Z,54.70
2019-05-05T10:50:34.065Z,51.80
2019-05-05T10:53:04.656Z,52.60
2019-05-05T10:55:34.572Z,54.30
2019-05-05T10:58:03.877Z,56.90
2019-05-05T11:00:44.634Z,56.40
2019-05-05T11:03:14.783Z,59.40
2019-05-05T11:05:44.982Z,60.00
2019-05-05T11:08:14.039Z,63.10
2019-05-05T11:10:44.882Z,61.20
2019-05-05T11:13:13.423Z,58.10
2019-05-05T11:15:44.319Z,53.00
2019-05-05T11:18:14.711Z,50.20
2019-05-05T11:20:44.632Z,52.20
2019-05-05T11:23:14.826Z,56.30
2019-05-05T11:25:44.375Z,58.30
2019-05-05T11:28:13.466Z,60.10
2019-05-05T11:30:45.307Z,61.50
2019-05-05T11:33:34.424Z,59.60
2019-05-05T11:36:07.955Z,56.50
2019-05-05T11:38:36.614Z,55.40
2019-05-05T11:41:05.240Z,56.80
2019-05-05T11:43:33.926Z,57.70
2019-05-05T11:46:02.733Z,58.30
2019-05-05T11:48:31.366Z,58.20
2019-05-05T11:50:59.995Z,60.70
2019-05-05T11:53:28.661Z,62.40
2019-05-05T11:55:57.245Z,58.80
2019-05-05T11:58:25.942Z,60.80
2019-05-05T12:00:55.024Z,61.70
2019-05-05T12:03:23.775Z,62.90
2019-05-05T12:05:52.502Z,63.70
2019-05-05T12:08:21.050Z,64.30
2019-05-05T12:10:51.350Z,63.20
2019-05-05T12:13:19.980Z,62.10
2019-05-05T12:15:50.250Z,61.30
2019-05-05T12:18:19.188Z,60.30
2019-05-05T12:20:47.770Z,61.60
2019-05-05T12:23:16.428Z,61.60
2019-05-05T12:25:46.620Z,61.50
2019-05-05T12:28:26.322Z,60.90
2019-05-05T12:30:58.143Z,59.90
2019-05-05T12:33:26.850Z,60.90
2019-05-05T12:35:55.415Z,61.30
2019-05-05T12:38:24.200Z,59.50
2019-05-05T12:40:53.627Z,60.90
2019-05-05T12:43:24.684Z,61.00
2019-05-05T12:46:10.819Z,60.80
2019-05-05T12:48:44.002Z,61.80
2019-05-05T12:51:14.616Z,61.90
2019-05-05T12:53:42.938Z,60.20
2019-05-05T12:56:11.634Z,59.60
2019-05-05T12:58:40.286Z,59.80
2019-05-05T13:01:14.365Z,58.20
2019-05-05T13:03:43.735Z,57.10
2019-05-05T13:06:14.466Z,58.30
2019-05-05T13:08:44.511Z,58.80
2019-05-05T13:11:13.118Z,59.80
2019-05-05T13:13:44.001Z,60.20
2019-05-05T13:16:13.686Z,60.50
2019-05-05T13:18:42.560Z,60.20
2019-05-05T13:21:13.147Z,61.40
2019-05-05T13:23:58.750Z,62.50
2019-05-05T13:26:29.387Z,61.00
2019-05-05T13:28:58.151Z,60.50
2019-05-05T13:31:26.706Z,61.20
2019-05-05T13:33:55.430Z,60.40
2019-05-05T13:36:24.270Z,56.20
2019-05-05T13:38:54.598Z,56.90
2019-05-05T13:41:23.320Z,59.10
2019-05-05T13:43:53.965Z,60.60
2019-05-05T13:46:27.094Z,61.40
2019-05-05T13:48:57.382Z,63.00
2019-05-05T13:51:26.250Z,65.10
2019-05-05T13:53:54.904Z,66.50
2019-05-05T13:56:24.458Z,67.20
2019-05-05T13:58:53.090Z,67.50
2019-05-05T14:01:23.569Z,66.30
2019-05-05T14:03:54.033Z,68.50
2019-05-05T14:06:24.132Z,67.10
2019-05-05T14:08:54.107Z,66.70
2019-05-05T14:11:24.525Z,65.90
2019-05-05T14:13:53.103Z,65.60
2019-05-05T14:16:21.650Z,65.10
2019-05-05T14:18:50.235Z,65.70
2019-05-05T14:21:19.175Z,66.30
2019-05-05T14:23:55.435Z,66.90
2019-05-05T14:26:27.919Z,68.50
2019-05-05T14:28:54.826Z,69.40
2019-05-05T14:31:28.252Z,71.20
2019-05-05T14:33:58.449Z,70.90
2019-05-05T14:36:29.107Z,70.60
2019-05-05T14:38:58.830Z,71.30
2019-05-05T14:41:27.578Z,71.40
2019-05-05T14:43:56.674Z,71.10
2019-05-05T14:46:25.334Z,70.60
2019-05-05T14:48:54.061Z,69.70
2019-05-05T14:51:22.698Z,69.30
2019-05-05T14:53:51.282Z,69.40
2019-05-05T14:56:19.843Z,68.90
2019-05-05T14:58:48.395Z,69.80
2019-05-05T15:01:17.191Z,70.30
2019-05-05T15:03:46.798Z,70.50
2019-05-05T15:06:34.429Z,72.00
2019-05-05T15:09:04.786Z,73.20
2019-05-05T15:11:44.552Z,75.30
2019-05-05T15:14:13.801Z,76.10
2019-05-05T15:16:43.755Z,76.70
2019-05-05T15:19:14.403Z,76.70
2019-05-05T15:21:44.297Z,76.50
2019-05-05T15:24:13.850Z,75.10
2019-05-05T15:26:51.285Z,74.20
2019-05-05T15:29:13.123Z,72.40
2019-05-05T15:31:43.413Z,71.10
2019-05-05T15:34:11.950Z,74.10
2019-05-05T15:36:40.506Z,77.50
2019-05-05T15:39:09.338Z,86.10
2019-05-05T15:41:38.000Z,93.40
2019-05-05T15:44:06.766Z,95.60
2019-05-05T15:46:37.663Z,96.40
2019-05-05T15:49:06.058Z,96.40
2019-05-05T15:51:34.645Z,98.30
2019-05-05T15:54:03.842Z,98.20
2019-05-05T15:56:34.029Z,98.50
2019-05-05T15:59:03.435Z,98.10
2019-05-05T16:01:32.027Z,96.20
2019-05-05T16:04:01.011Z,96.70
2019-05-05T16:06:30.010Z,96.30
2019-05-05T16:08:58.599Z,94.60
2019-05-05T16:11:27.299Z,94.50
2019-05-05T16:13:55.954Z,94.50
2019-05-05T16:16:28.898Z,93.90
2019-05-05T16:19:07.898Z,90.10
2019-05-05T16:21:54.856Z,91.40
2019-05-05T16:24:25.230Z,91.80
2019-05-05T16:26:55.577Z,91.60
2019-05-05T16:29:24.299Z,91.50
2019-05-05T16:31:53.670Z,92.80
2019-05-05T16:34:23.787Z,92.80
2019-05-05T16:36:54.452Z,96.50
2019-05-05T16:39:22.573Z,99.90
2019-05-05T16:41:51.198Z,99.90
2019-05-05T16:44:19.828Z,99.90
2019-05-05T16:46:48.412Z,99.90
2019-05-05T16:49:17.383Z,99.90
2019-05-05T16:51:47.616Z,99.90
2019-05-05T16:54:17.836Z,99.90
2019-05-05T16:56:46.866Z,99.90
2019-05-05T16:59:16.508Z,99.90
2019-05-05T17:01:45.523Z,99.90
2019-05-05T17:04:14.358Z,99.90
2019-05-05T17:06:45.626Z,99.90
2019-05-05T17:09:14.958Z,99.90
2019-05-05T17:11:45.435Z,99.90
2019-05-05T17:14:23.371Z,99.90
2019-05-05T17:16:54.465Z,99.90
2019-05-05T17:19:27.846Z,99.90
2019-05-05T17:22:06.594Z,99.90
2019-05-05T17:24:35.265Z,99.90
2019-05-05T17:27:03.982Z,99.90
2019-05-05T17:29:34.419Z,99.90
2019-05-05T17:32:03.022Z,99.90
2019-05-05T17:34:31.675Z,99.90
2019-05-05T17:37:00.226Z,99.90
2019-05-05T17:39:30.586Z,99.90
2019-05-05T17:42:06.803Z,99.90
2019-05-05T17:44:44.383Z,99.90
2019-05-05T17:47:17.682Z,99.90
2019-05-05T17:49:57.099Z,99.90
2019-05-05T17:52:29.862Z,99.90
2019-05-05T17:54:59.111Z,99.90
2019-05-05T17:57:27.675Z,99.90
2019-05-05T17:59:56.399Z,99.90
2019-05-05T18:02:24.955Z,99.90
2019-05-05T18:04:54.139Z,99.90
2019-05-05T18:07:27.491Z,99.90
2019-05-05T18:09:58.051Z,99.90
2019-05-05T18:12:28.343Z,99.90
2019-05-05T18:14:58.903Z,99.90
2019-05-05T18:17:27.491Z,99.90
2019-05-05T18:19:56.111Z,99.90
2019-05-05T18:22:24.805Z,99.90
2019-05-05T18:24:53.966Z,99.90
2019-05-05T18:27:23.679Z,99.90
2019-05-05T18:29:54.469Z,99.90
2019-05-05T18:32:23.617Z,99.90
2019-05-05T18:34:54.525Z,99.90
2019-05-05T18:37:24.182Z,99.90
2019-05-05T18:39:54.623Z,99.90
2019-05-05T18:42:24.758Z,99.90
2019-05-05T18:45:14.767Z,99.90
2019-05-05T18:47:43.463Z,99.90
2019-05-05T18:50:13.607Z,99.90
2019-05-05T18:52:45.156Z,99.90
2019-05-05T18:55:13.139Z,99.90
2019-05-05T18:57:43.378Z,99.90
2019-05-05T19:00:14.126Z,99.90
2019-05-05T19:02:44.448Z,99.90
2019-05-05T19:05:17.454Z,99.90
2019-05-05T19:07:55.393Z,99.90
2019-05-05T19:10:18.307Z,99.90
2019-05-05T19:12:46.951Z,99.90
2019-05-05T19:15:16.912Z,99.90
2019-05-05T19:17:45.535Z,99.90
2019-05-05T19:20:19.011Z,99.90
2019-05-05T19:22:49.208Z,99.90
2019-05-05T19:25:17.767Z,99.90
2019-05-05T19:27:46.998Z,99.90
2019-05-05T19:30:17.258Z,99.90
2019-05-05T19:32:45.995Z,99.90
2019-05-05T19:35:14.896Z,99.90
2019-05-05T19:37:44.507Z,99.90
2019-05-05T19:40:14.217Z,99.90
2019-05-05T19:42:46.011Z,99.90
2019-05-05T19:45:14.040Z,99.90
2019-05-05T19:47:43.834Z,99.90
2019-05-05T19:50:24.390Z,99.90
2019-05-05T19:52:53.914Z,99.90
2019-05-05T19:55:22.602Z,99.90
2019-05-05T19:57:51.164Z,99.90
2019-05-05T20:00:20.683Z,99.90
2019-05-05T20:03:01.459Z,99.90
2019-05-05T20:05:19.867Z,99.90
2019-05-05T20:07:48.486Z,99.90
2019-05-05T20:10:17.226Z,99.90
2019-05-05T20:12:46.967Z,99.90
2019-05-05T20:15:17.359Z,99.90
2019-05-05T20:17:46.195Z,99.90
2019-05-05T20:20:15.114Z,99.90
2019-05-05T20:22:44.465Z,99.90
2019-05-05T20:25:14.143Z,99.90
2019-05-05T20:27:42.670Z,99.90
2019-05-05T20:30:14.085Z,99.90
2019-05-05T20:32:43.829Z,99.90
2019-05-05T20:35:25.807Z,99.90
2019-05-05T20:37:56.099Z,99.90
2019-05-05T20:40:26.434Z,99.90
2019-05-05T20:42:55.091Z,99.90
2019-05-05T20:45:25.690Z,99.90
2019-05-05T20:47:54.292Z,99.90
2019-05-05T20:50:24.770Z,99.90
2019-05-05T20:52:53.669Z,99.90
2019-05-05T20:55:22.698Z,99.90
2019-05-05T20:57:53.557Z,99.90
2019-05-05T21:00:23.776Z,99.90
2019-05-05T21:02:53.798Z,99.90
2019-05-05T21:05:24.031Z,99.90
2019-05-05T21:07:52.435Z,99.90
2019-05-05T21:10:23.977Z,99.90
2019-05-05T21:12:54.224Z,99.90
2019-05-05T21:15:21.960Z,99.90
2019-05-05T21:17:50.514Z,99.90
2019-05-05T21:20:19.243Z,99.90
2019-05-05T21:22:49.454Z,99.90
2019-05-05T21:25:23.904Z,99.90
2019-05-05T21:27:52.716Z,99.90
2019-05-05T21:30:21.439Z,99.90
2019-05-05T21:32:50.005Z,99.90
2019-05-05T21:35:19.163Z,99.90
2019-05-05T21:37:47.756Z,99.90
2019-05-05T21:40:17.340Z,99.90
2019-05-05T21:42:46.250Z,99.90
2019-05-05T21:45:15.548Z,99.90
2019-05-05T21:47:44.288Z,99.90
2019-05-05T21:50:14.881Z,99.90
2019-05-05T21:52:53.553Z,99.90
2019-05-05T21:55:39.890Z,99.90
2019-05-05T21:58:16.562Z,99.90
2019-05-05T22:00:49.813Z,99.90
2019-05-05T22:03:23.573Z,99.90
2019-05-05T22:05:53.922Z,99.90
2019-05-05T22:08:23.927Z,99.90
2019-05-05T22:10:54.345Z,99.90
2019-05-05T22:13:23.452Z,99.90
2019-05-05T22:15:54.440Z,99.90
2019-05-05T22:18:22.663Z,99.90
2019-05-05T22:20:54.647Z,99.90
2019-05-05T22:23:23.411Z,99.90
2019-05-05T22:25:52.094Z,99.90
2019-05-05T22:28:20.651Z,99.90
2019-05-05T22:30:49.451Z,99.90
2019-05-05T22:33:18.180Z,99.90
2019-05-05T22:35:47.359Z,99.90
2019-05-05T22:38:16.091Z,99.90
2019-05-05T22:40:44.719Z,99.90
2019-05-05T22:43:14.765Z,99.90
2019-05-05T22:45:44.998Z,99.90
2019-05-05T22:48:14.431Z,99.90
2019-05-05T22:50:43.645Z,99.90
2019-05-05T22:53:14.049Z,99.90
2019-05-05T22:55:43.914Z,99.90
2019-05-05T22:58:14.342Z,99.90
2019-05-05T23:00:43.828Z,99.90
2019-05-05T23:03:29.323Z,99.90
2019-05-05T23:05:59.614Z,99.90
2019-05-05T23:08:28.173Z,99.90
2019-05-05T23:10:56.891Z,99.90
2019-05-05T23:13:25.516Z,99.90
2019-05-05T23:15:55.816Z,99.90
2019-05-05T23:18:26.049Z,99.90
2019-05-05T23:21:05.714Z,99.90
2019-05-05T23:23:36.503Z,99.90
2019-05-05T23:26:07.201Z,99.90
2019-05-05T23:28:35.756Z,99.90
2019-05-05T23:31:04.978Z,99.90
2019-05-05T23:33:34.569Z,99.90
2019-05-05T23:36:04.107Z,99.90
2019-05-05T23:38:34.619Z,99.90
2019-05-05T23:41:03.841Z,99.90
2019-05-05T23:43:34.428Z,99.90
2019-05-05T23:46:03.681Z,99.90
2019-05-05T23:48:34.739Z,99.90
2019-05-05T23:51:04.483Z,99.90
2019-05-05T23:53:34.462Z,99.90
2019-05-05T23:56:03.995Z,99.90
2019-05-05T23:58:34.637Z,99.90
